PRIVATE WETTERSTATION BILLIGHEIM-ALLFELD                       ZURCK
Wetterdaten: Sonntag, 25.09.2016
Datum Zeit Temp. A. Temp. A. min Temp. A. max Feuchte A. Luftdruck Regen Wind Richtung Richtung Sonnenschein ET Solar Taupunkt Windchill Windben Empfang
25.09.2016 00:00 12,4 C 12,4 C 12,6 C 81 % 1021,1 hPa 0,0 l/m 0,0 km/h (0 Bft) W 270 0 min 0,025 mm 0 W/m 9,2 C 12,4 C 3,2 km/h (1 Bft) 100 %
25.09.2016 00:10 12,2 C 12,2 C 12,4 C 82 % 1021,1 hPa 0,0 l/m 0,0 km/h (0 Bft) W 270 0 min 0,000 mm 0 W/m 9,2 C 12,2 C 1,6 km/h (1 Bft) 100 %
25.09.2016 00:20 12,0 C 12,0 C 12,2 C 82 % 1021,0 hPa 0,0 l/m 0,0 km/h (0 Bft) W 270 0 min 0,000 mm 0 W/m 9,0 C 12,0 C 4,8 km/h (1 Bft) 100 %
25.09.2016 00:30 11,7 C 11,7 C 12,0 C 83 % 1021,0 hPa 0,0 l/m 0,0 km/h (0 Bft) W 270 0 min 0,000 mm 0 W/m 8,9 C 11,7 C 4,8 km/h (1 Bft) 100 %
25.09.2016 00:40 11,4 C 11,4 C 11,7 C 84 % 1020,9 hPa 0,0 l/m 3,2 km/h (1 Bft) W-NW 292 0 min 0,000 mm 0 W/m 8,8 C 11,4 C 4,8 km/h (1 Bft) 100 %
25.09.2016 00:50 11,2 C 11,2 C 11,4 C 85 % 1020,9 hPa 0,0 l/m 3,2 km/h (1 Bft) NW 315 0 min 0,000 mm 0 W/m 8,8 C 11,2 C 6,4 km/h (2 Bft) 90 %
25.09.2016 01:00 11,1 C 11,1 C 11,2 C 85 % 1021,0 hPa 0,0 l/m 1,6 km/h (1 Bft) NW 315 0 min 0,025 mm 0 W/m 8,7 C 11,1 C 4,8 km/h (1 Bft) 100 %
25.09.2016 01:10 11,0 C 11,0 C 11,1 C 86 % 1020,9 hPa 0,0 l/m 1,6 km/h (1 Bft) N-NW 337 0 min 0,000 mm 0 W/m 8,7 C 11,0 C 6,4 km/h (2 Bft) 100 %
25.09.2016 01:20 10,9 C 10,9 C 11,0 C 86 % 1021,0 hPa 0,0 l/m 1,6 km/h (1 Bft) N-NW 337 0 min 0,000 mm 0 W/m 8,7 C 10,9 C 4,8 km/h (1 Bft) 100 %
25.09.2016 01:30 10,8 C 10,8 C 10,9 C 86 % 1020,9 hPa 0,0 l/m 1,6 km/h (1 Bft) NW 315 0 min 0,000 mm 0 W/m 8,6 C 10,8 C 8,0 km/h (2 Bft) 100 %
25.09.2016 01:40 10,6 C 10,6 C 10,8 C 87 % 1020,9 hPa 0,0 l/m 1,6 km/h (1 Bft) NW 315 0 min 0,000 mm 0 W/m 8,5 C 10,6 C 4,8 km/h (1 Bft) 100 %
25.09.2016 01:50 10,5 C 10,5 C 10,6 C 87 % 1020,9 hPa 0,0 l/m 0,0 km/h (0 Bft) N-NW 337 0 min 0,000 mm 0 W/m 8,4 C 10,5 C 1,6 km/h (1 Bft) 100 %
25.09.2016 02:00 10,3 C 10,3 C 10,5 C 87 % 1020,8 hPa 0,0 l/m 0,0 km/h (0 Bft) N 0 0 min 0,000 mm 0 W/m 8,2 C 10,3 C 0,0 km/h (0 Bft) 100 %
25.09.2016 02:10 10,0 C 10,0 C 10,3 C 87 % 1020,9 hPa 0,0 l/m 1,6 km/h (1 Bft) N-NW 337 0 min 0,000 mm 0 W/m 7,9 C 10,0 C 4,8 km/h (1 Bft) 100 %
25.09.2016 02:20 9,7 C 9,7 C 10,0 C 88 % 1020,9 hPa 0,0 l/m 0,0 km/h (0 Bft) N-NW 337 0 min 0,000 mm 0 W/m 7,8 C 9,7 C 3,2 km/h (1 Bft) 99 %
25.09.2016 02:30 9,4 C 9,4 C 9,7 C 88 % 1020,8 hPa 0,0 l/m 0,0 km/h (0 Bft) N 0 0 min 0,000 mm 0 W/m 7,5 C 9,4 C 0,0 km/h (0 Bft) 100 %
25.09.2016 02:40 9,2 C 9,2 C 9,4 C 88 % 1020,8 hPa 0,0 l/m 0,0 km/h (0 Bft) N-NW 337 0 min 0,000 mm 0 W/m 7,3 C 9,2 C 1,6 km/h (1 Bft) 100 %
25.09.2016 02:50 9,1 C 9,1 C 9,2 C 89 % 1020,7 hPa 0,0 l/m 0,0 km/h (0 Bft) N-NW 337 0 min 0,000 mm 0 W/m 7,4 C 9,1 C 1,6 km/h (1 Bft) 100 %
25.09.2016 03:00 9,1 C 9,1 C 9,1 C 89 % 1020,7 hPa 0,0 l/m 0,0 km/h (0 Bft) N 0 0 min 0,000 mm 0 W/m 7,4 C 9,1 C 0,0 km/h (0 Bft) 100 %
25.09.2016 03:10 9,0 C 9,0 C 9,1 C 89 % 1020,6 hPa 0,0 l/m 0,0 km/h (0 Bft) N-NW 337 0 min 0,000 mm 0 W/m 7,3 C 9,0 C 1,6 km/h (1 Bft) 100 %
25.09.2016 03:20 9,0 C 9,0 C 9,0 C 89 % 1020,6 hPa 0,0 l/m 0,0 km/h (0 Bft) N 0 0 min 0,000 mm 0 W/m 7,3 C 9,0 C 0,0 km/h (0 Bft) 100 %
25.09.2016 03:30 8,9 C 8,9 C 9,0 C 89 % 1020,5 hPa 0,0 l/m 0,0 km/h (0 Bft) N 0 0 min 0,000 mm 0 W/m 7,2 C 8,9 C 0,0 km/h (0 Bft) 100 %
25.09.2016 03:40 8,8 C 8,8 C 8,9 C 89 % 1020,5 hPa 0,0 l/m 0,0 km/h (0 Bft) N-NW 337 0 min 0,000 mm 0 W/m 7,1 C 8,8 C 1,6 km/h (1 Bft) 100 %
25.09.2016 03:50 8,7 C 8,7 C 8,8 C 89 % 1020,4 hPa 0,0 l/m 0,0 km/h (0 Bft) N-NW 337 0 min 0,000 mm 0 W/m 7,0 C 8,7 C 3,2 km/h (1 Bft) 100 %
25.09.2016 04:00 8,6 C 8,6 C 8,7 C 89 % 1020,2 hPa 0,0 l/m 0,0 km/h (0 Bft) N-NW 337 0 min 0,000 mm 0 W/m 6,9 C 8,6 C 3,2 km/h (1 Bft) 100 %
25.09.2016 04:10 8,5 C 8,5 C 8,6 C 89 % 1020,1 hPa 0,0 l/m 0,0 km/h (0 Bft) N 0 0 min 0,000 mm 0 W/m 6,8 C 8,5 C 0,0 km/h (0 Bft) 99 %
25.09.2016 04:20 8,4 C 8,4 C 8,5 C 89 % 1020,1 hPa 0,0 l/m 0,0 km/h (0 Bft) N 0 0 min 0,000 mm 0 W/m 6,7 C 8,4 C 0,0 km/h (0 Bft) 100 %
25.09.2016 04:30 8,3 C 8,3 C 8,4 C 89 % 1020,2 hPa 0,0 l/m 0,0 km/h (0 Bft) N 0 0 min 0,000 mm 0 W/m 6,6 C 8,3 C 0,0 km/h (0 Bft) 100 %
25.09.2016 04:40 8,2 C 8,2 C 8,3 C 90 % 1020,0 hPa 0,0 l/m 0,0 km/h (0 Bft) N-NW 337 0 min 0,000 mm 0 W/m 6,7 C 8,2 C 1,6 km/h (1 Bft) 99 %
25.09.2016 04:50 8,2 C 8,2 C 8,2 C 90 % 1020,0 hPa 0,0 l/m 0,0 km/h (0 Bft) N 0 0 min 0,000 mm 0 W/m 6,7 C 8,2 C 0,0 km/h (0 Bft) 98 %
25.09.2016 05:00 8,2 C 8,2 C 8,2 C 90 % 1020,0 hPa 0,0 l/m 0,0 km/h (0 Bft) N-NW 337 0 min 0,000 mm 0 W/m 6,7 C 8,2 C 1,6 km/h (1 Bft) 98 %
25.09.2016 05:10 8,2 C 8,2 C 8,2 C 90 % 1019,9 hPa 0,0 l/m 0,0 km/h (0 Bft) N 0 0 min 0,000 mm 0 W/m 6,7 C 8,2 C 0,0 km/h (0 Bft) 97 %
25.09.2016 05:20 8,1 C 8,1 C 8,2 C 90 % 1020,0 hPa 0,0 l/m 0,0 km/h (0 Bft) N 0 0 min 0,000 mm 0 W/m 6,6 C 8,1 C 0,0 km/h (0 Bft) 98 %
25.09.2016 05:30 8,0 C 8,0 C 8,1 C 90 % 1020,0 hPa 0,0 l/m 0,0 km/h (0 Bft) N 0 0 min 0,000 mm 0 W/m 6,5 C 8,0 C 0,0 km/h (0 Bft) 97 %
25.09.2016 05:40 8,1 C 8,0 C 8,1 C 90 % 1020,0 hPa 0,0 l/m 0,0 km/h (0 Bft) N 360 0 min 0,000 mm 0 W/m 6,6 C 8,1 C 1,6 km/h (1 Bft) 98 %
25.09.2016 05:50 8,1 C 8,1 C 8,2 C 90 % 1020,0 hPa 0,0 l/m 0,0 km/h (0 Bft) N 0 0 min 0,000 mm 0 W/m 6,6 C 8,1 C 0,0 km/h (0 Bft) 97 %
25.09.2016 06:00 8,1 C 8,1 C 8,2 C 90 % 1020,0 hPa 0,0 l/m 0,0 km/h (0 Bft) N 360 0 min 0,000 mm 0 W/m 6,6 C 8,1 C 1,6 km/h (1 Bft) 98 %
25.09.2016 06:10 8,1 C 8,1 C 8,2 C 90 % 1019,9 hPa 0,0 l/m 0,0 km/h (0 Bft) N 0 0 min 0,000 mm 0 W/m 6,6 C 8,1 C 0,0 km/h (0 Bft) 98 %
25.09.2016 06:20 8,1 C 8,1 C 8,1 C 90 % 1020,0 hPa 0,0 l/m 0,0 km/h (0 Bft) N 0 0 min 0,000 mm 0 W/m 6,6 C 8,1 C 0,0 km/h (0 Bft) 98 %
25.09.2016 06:30 8,0 C 8,0 C 8,1 C 90 % 1019,9 hPa 0,0 l/m 0,0 km/h (0 Bft) N 0 0 min 0,000 mm 0 W/m 6,5 C 8,0 C 0,0 km/h (0 Bft) 98 %
25.09.2016 06:40 7,8 C 7,8 C 8,0 C 90 % 1020,0 hPa 0,0 l/m 0,0 km/h (0 Bft) N 0 0 min 0,000 mm 0 W/m 6,3 C 7,8 C 0,0 km/h (0 Bft) 98 %
25.09.2016 06:50 7,7 C 7,7 C 7,8 C 90 % 1020,0 hPa 0,0 l/m 0,0 km/h (0 Bft) N 0 0 min 0,000 mm 0 W/m 6,2 C 7,7 C 0,0 km/h (0 Bft) 98 %
25.09.2016 07:00 7,6 C 7,6 C 7,7 C 90 % 1020,0 hPa 0,0 l/m 0,0 km/h (0 Bft) N 0 0 min 0,000 mm 0 W/m 6,1 C 7,6 C 0,0 km/h (0 Bft) 97 %
25.09.2016 07:10 7,4 C 7,4 C 7,6 C 90 % 1019,9 hPa 0,0 l/m 0,0 km/h (0 Bft) N 0 0 min 0,000 mm 0 W/m 5,9 C 7,4 C 0,0 km/h (0 Bft) 97 %
25.09.2016 07:20 7,4 C 7,4 C 7,4 C 90 % 1020,0 hPa 0,0 l/m 0,0 km/h (0 Bft) N 0 0 min 0,000 mm 11 W/m 5,9 C 7,4 C 0,0 km/h (0 Bft) 98 %
25.09.2016 07:30 7,3 C 7,3 C 7,4 C 90 % 1020,0 hPa 0,0 l/m 0,0 km/h (0 Bft) N 360 0 min 0,000 mm 14 W/m 5,8 C 7,3 C 1,6 km/h (1 Bft) 98 %
25.09.2016 07:40 7,3 C 7,3 C 7,3 C 91 % 1020,1 hPa 0,0 l/m 0,0 km/h (0 Bft) N 0 0 min 0,000 mm 21 W/m 5,9 C 7,3 C 0,0 km/h (0 Bft) 98 %
25.09.2016 07:50 7,4 C 7,3 C 7,4 C 90 % 1020,1 hPa 0,0 l/m 0,0 km/h (0 Bft) N 360 0 min 0,000 mm 25 W/m 5,9 C 7,4 C 1,6 km/h (1 Bft) 98 %
25.09.2016 08:00 7,6 C 7,4 C 7,6 C 90 % 1020,1 hPa 0,0 l/m 0,0 km/h (0 Bft) N 0 0 min 0,000 mm 28 W/m 6,1 C 7,6 C 0,0 km/h (0 Bft) 98 %
25.09.2016 08:10 7,7 C 7,6 C 7,7 C 91 % 1020,1 hPa 0,0 l/m 0,0 km/h (0 Bft) N 0 0 min 0,000 mm 35 W/m 6,3 C 7,7 C 0,0 km/h (0 Bft) 97 %
25.09.2016 08:20 7,9 C 7,7 C 7,9 C 91 % 1020,1 hPa 0,0 l/m 0,0 km/h (0 Bft) N 360 0 min 0,000 mm 47 W/m 6,5 C 7,9 C 1,6 km/h (1 Bft) 98 %
25.09.2016 08:30 8,0 C 7,9 C 8,0 C 91 % 1020,1 hPa 0,0 l/m 0,0 km/h (0 Bft) N 0 0 min 0,000 mm 39 W/m 6,6 C 8,0 C 0,0 km/h (0 Bft) 97 %
25.09.2016 08:40 8,2 C 8,0 C 8,2 C 91 % 1020,3 hPa 0,0 l/m 0,0 km/h (0 Bft) N 0 0 min 0,000 mm 141 W/m 6,8 C 8,2 C 0,0 km/h (0 Bft) 98 %
25.09.2016 08:50 8,9 C 8,2 C 8,9 C 90 % 1020,2 hPa 0,0 l/m 0,0 km/h (0 Bft) N 360 10 min 0,000 mm 207 W/m 7,4 C 8,9 C 1,6 km/h (1 Bft) 88 %
25.09.2016 09:00 9,8 C 9,0 C 9,8 C 90 % 1020,3 hPa 0,0 l/m 0,0 km/h (0 Bft) N 0 10 min 0,051 mm 229 W/m 8,2 C 9,8 C 0,0 km/h (0 Bft) 97 %
25.09.2016 09:10 10,7 C 9,8 C 10,7 C 91 % 1020,4 hPa 0,0 l/m 0,0 km/h (0 Bft) N 0 10 min 0,000 mm 251 W/m 9,3 C 10,7 C 0,0 km/h (0 Bft) 98 %
25.09.2016 09:20 11,2 C 10,7 C 11,2 C 90 % 1020,3 hPa 0,0 l/m 0,0 km/h (0 Bft) N 0 10 min 0,000 mm 274 W/m 9,6 C 11,2 C 0,0 km/h (0 Bft) 97 %
25.09.2016 09:30 11,8 C 11,2 C 11,8 C 89 % 1020,3 hPa 0,0 l/m 0,0 km/h (0 Bft) N 0 10 min 0,000 mm 301 W/m 10,0 C 11,8 C 0,0 km/h (0 Bft) 98 %
25.09.2016 09:40 12,6 C 11,8 C 12,6 C 89 % 1020,3 hPa 0,0 l/m 0,0 km/h (0 Bft) N 0 10 min 0,000 mm 332 W/m 10,8 C 12,6 C 0,0 km/h (0 Bft) 98 %
25.09.2016 09:50 13,4 C 12,6 C 13,4 C 87 % 1020,2 hPa 0,0 l/m 0,0 km/h (0 Bft) N 0 10 min 0,000 mm 362 W/m 11,3 C 13,4 C 0,0 km/h (0 Bft) 98 %
25.09.2016 10:00 14,1 C 13,4 C 14,1 C 84 % 1020,2 hPa 0,0 l/m 0,0 km/h (0 Bft) N 0 10 min 0,152 mm 390 W/m 11,4 C 14,1 C 0,0 km/h (0 Bft) 97 %
25.09.2016 10:10 15,1 C 14,1 C 15,1 C 83 % 1020,2 hPa 0,0 l/m 0,0 km/h (0 Bft) N 0 10 min 0,000 mm 417 W/m 12,2 C 15,1 C 0,0 km/h (0 Bft) 97 %
25.09.2016 10:20 15,7 C 15,1 C 15,7 C 80 % 1020,0 hPa 0,0 l/m 0,0 km/h (0 Bft) N 0 10 min 0,000 mm 445 W/m 12,3 C 15,7 C 0,0 km/h (0 Bft) 98 %
25.09.2016 10:30 17,1 C 15,8 C 17,1 C 78 % 1020,0 hPa 0,0 l/m 0,0 km/h (0 Bft) W-NW 292 10 min 0,000 mm 468 W/m 13,2 C 17,1 C 1,6 km/h (1 Bft) 98 %
25.09.2016 10:40 18,1 C 17,1 C 18,1 C 71 % 1020,0 hPa 0,0 l/m 0,0 km/h (0 Bft) W 270 10 min 0,000 mm 490 W/m 12,8 C 18,1 C 1,6 km/h (1 Bft) 97 %
25.09.2016 10:50 18,4 C 18,1 C 18,4 C 72 % 1019,9 hPa 0,0 l/m 1,6 km/h (1 Bft) SW 225 10 min 0,000 mm 512 W/m 13,3 C 18,4 C 8,0 km/h (2 Bft) 97 %
25.09.2016 11:00 18,7 C 18,4 C 18,7 C 69 % 1019,7 hPa 0,0 l/m 3,2 km/h (1 Bft) S-SW 202 10 min 0,254 mm 531 W/m 12,9 C 18,7 C 9,7 km/h (2 Bft) 97 %
25.09.2016 11:10 19,1 C 18,7 C 19,1 C 69 % 1019,7 hPa 0,0 l/m 3,2 km/h (1 Bft) S-SW 202 10 min 0,000 mm 550 W/m 13,3 C 19,1 C 8,0 km/h (2 Bft) 98 %
25.09.2016 11:20 19,4 C 19,1 C 19,4 C 68 % 1019,6 hPa 0,0 l/m 0,0 km/h (0 Bft) S-SW 202 10 min 0,000 mm 563 W/m 13,3 C 19,4 C 3,2 km/h (1 Bft) 98 %
25.09.2016 11:30 20,1 C 19,4 C 20,1 C 65 % 1019,5 hPa 0,0 l/m 0,0 km/h (0 Bft) S-SW 202 10 min 0,000 mm 582 W/m 13,3 C 20,1 C 8,0 km/h (2 Bft) 97 %
25.09.2016 11:40 20,2 C 20,1 C 20,2 C 66 % 1019,5 hPa 0,0 l/m 3,2 km/h (1 Bft) S-SO 157 10 min 0,000 mm 592 W/m 13,6 C 20,2 C 6,4 km/h (2 Bft) 98 %
25.09.2016 11:50 20,4 C 20,2 C 20,4 C 66 % 1019,5 hPa 0,0 l/m 4,8 km/h (1 Bft) S-SW 202 10 min 0,000 mm 603 W/m 13,8 C 20,4 C 9,7 km/h (2 Bft) 97 %
25.09.2016 12:10 20,7 C 20,2 C 20,7 C 65 % 1019,3 hPa 0,0 l/m 6,1 km/h (2 Bft) S 183 20 min 0,331 mm 621 W/m 13,9 C 20,7 C 11,3 km/h (2 Bft) 100 %
25.09.2016 12:20 20,9 C 20,6 C 20,9 C 65 % 1019,2 hPa 0,0 l/m 5,6 km/h (1 Bft) S-SW 204 10 min 0,000 mm 633 W/m 14,1 C 20,9 C 11,3 km/h (2 Bft) 100 %
25.09.2016 12:30 21,4 C 20,9 C 21,4 C 63 % 1019,1 hPa 0,0 l/m 4,7 km/h (1 Bft) S-SW 200 10 min 0,000 mm 638 W/m 14,1 C 21,4 C 9,7 km/h (2 Bft) 100 %
25.09.2016 12:40 21,4 C 21,3 C 21,4 C 64 % 1019,0 hPa 0,0 l/m 4,6 km/h (1 Bft) SW 229 10 min 0,000 mm 642 W/m 14,3 C 21,4 C 9,7 km/h (2 Bft) 100 %
25.09.2016 12:50 21,8 C 21,4 C 21,8 C 60 % 1019,0 hPa 0,0 l/m 3,9 km/h (1 Bft) S 175 10 min 0,000 mm 649 W/m 13,7 C 21,8 C 11,3 km/h (2 Bft) 100 %
25.09.2016 13:00 22,1 C 21,8 C 22,1 C 60 % 1019,1 hPa 0,0 l/m 0,0 km/h (0 Bft) SW 233 10 min 0,407 mm 650 W/m 14,0 C 22,1 C 1,6 km/h (1 Bft) 100 %
25.09.2016 13:10 22,4 C 22,1 C 22,4 C 59 % 1018,9 hPa 0,0 l/m 1,8 km/h (1 Bft) SW 227 10 min 0,000 mm 645 W/m 14,0 C 22,4 C 8,0 km/h (2 Bft) 100 %
25.09.2016 13:20 22,3 C 22,3 C 22,4 C 61 % 1018,8 hPa 0,0 l/m 1,8 km/h (1 Bft) SW 228 10 min 0,000 mm 643 W/m 14,4 C 22,3 C 6,4 km/h (2 Bft) 100 %
25.09.2016 13:30 22,6 C 22,3 C 22,6 C 59 % 1018,7 hPa 0,0 l/m 2,2 km/h (1 Bft) SW 224 10 min 0,000 mm 642 W/m 14,2 C 22,6 C 8,0 km/h (2 Bft) 100 %
25.09.2016 13:40 22,3 C 22,3 C 22,6 C 60 % 1018,7 hPa 0,0 l/m 3,7 km/h (1 Bft) S 190 10 min 0,000 mm 636 W/m 14,2 C 22,3 C 9,7 km/h (2 Bft) 100 %
25.09.2016 13:50 22,6 C 22,3 C 22,6 C 59 % 1018,6 hPa 0,0 l/m 3,1 km/h (1 Bft) SW 222 10 min 0,000 mm 628 W/m 14,2 C 22,6 C 11,3 km/h (2 Bft) 100 %
25.09.2016 14:00 22,6 C 22,6 C 22,7 C 60 % 1018,6 hPa 0,0 l/m 4,3 km/h (1 Bft) S-SO 163 10 min 0,406 mm 621 W/m 14,4 C 22,6 C 9,7 km/h (2 Bft) 100 %
25.09.2016 14:10 22,6 C 22,5 C 22,6 C 59 % 1018,4 hPa 0,0 l/m 5,4 km/h (1 Bft) S-SW 209 10 min 0,000 mm 617 W/m 14,2 C 22,6 C 16,1 km/h (3 Bft) 100 %
25.09.2016 14:20 23,0 C 22,6 C 23,0 C 57 % 1018,3 hPa 0,0 l/m 9,6 km/h (2 Bft) SW 214 10 min 0,000 mm 608 W/m 14,0 C 22,1 C 20,9 km/h (4 Bft) 100 %
25.09.2016 14:30 23,3 C 23,0 C 23,3 C 56 % 1018,2 hPa 0,0 l/m 6,5 km/h (2 Bft) W 264 10 min 0,000 mm 596 W/m 14,0 C 23,3 C 16,1 km/h (3 Bft) 100 %
25.09.2016 14:40 23,4 C 23,3 C 23,4 C 55 % 1018,1 hPa 0,0 l/m 3,4 km/h (1 Bft) W 263 10 min 0,000 mm 550 W/m 13,8 C 23,4 C 14,5 km/h (3 Bft) 100 %
25.09.2016 14:50 23,4 C 23,4 C 23,5 C 55 % 1018,0 hPa 0,0 l/m 3,5 km/h (1 Bft) SW 225 10 min 0,000 mm 564 W/m 13,8 C 23,4 C 17,7 km/h (3 Bft) 100 %
25.09.2016 15:00 23,7 C 23,4 C 23,7 C 55 % 1018,1 hPa 0,0 l/m 4,7 km/h (1 Bft) W 279 10 min 0,381 mm 548 W/m 14,1 C 23,7 C 14,5 km/h (3 Bft) 100 %
25.09.2016 15:10 24,1 C 23,7 C 24,1 C 54 % 1018,0 hPa 0,0 l/m 4,3 km/h (1 Bft) W 260 10 min 0,000 mm 541 W/m 14,2 C 24,1 C 9,7 km/h (2 Bft) 100 %
25.09.2016 15:20 24,0 C 23,9 C 24,1 C 55 % 1017,8 hPa 0,0 l/m 5,2 km/h (1 Bft) SW 232 10 min 0,000 mm 445 W/m 14,4 C 24,0 C 11,3 km/h (2 Bft) 100 %
25.09.2016 15:30 23,7 C 23,7 C 24,0 C 55 % 1017,7 hPa 0,0 l/m 3,9 km/h (1 Bft) W-SW 258 10 min 0,000 mm 388 W/m 14,1 C 23,7 C 14,5 km/h (3 Bft) 100 %
25.09.2016 15:40 23,4 C 23,4 C 23,7 C 56 % 1017,7 hPa 0,0 l/m 2,0 km/h (1 Bft) SW 221 10 min 0,000 mm 153 W/m 14,1 C 23,4 C 9,7 km/h (2 Bft) 100 %
25.09.2016 15:50 23,4 C 23,4 C 23,5 C 56 % 1017,7 hPa 0,0 l/m 3,5 km/h (1 Bft) S-SW 213 0 min 0,000 mm 72 W/m 14,1 C 23,4 C 9,7 km/h (2 Bft) 100 %
25.09.2016 16:00 23,5 C 23,4 C 23,5 C 55 % 1017,7 hPa 0,0 l/m 5,0 km/h (1 Bft) W 269 0 min 0,229 mm 60 W/m 13,9 C 23,5 C 11,3 km/h (2 Bft) 100 %
25.09.2016 16:10 23,6 C 23,5 C 23,7 C 56 % 1017,6 hPa 0,0 l/m 2,0 km/h (1 Bft) W-SW 253 0 min 0,000 mm 56 W/m 14,3 C 23,6 C 9,7 km/h (2 Bft) 100 %
25.09.2016 16:20 23,8 C 23,6 C 23,8 C 55 % 1017,7 hPa 0,0 l/m 2,7 km/h (1 Bft) S-SW 195 0 min 0,000 mm 54 W/m 14,2 C 23,8 C 11,3 km/h (2 Bft) 100 %
25.09.2016 16:30 23,7 C 23,7 C 23,8 C 55 % 1017,7 hPa 0,0 l/m 2,7 km/h (1 Bft) SW 215 0 min 0,000 mm 51 W/m 14,1 C 23,7 C 9,7 km/h (2 Bft) 100 %
25.09.2016 16:40 23,6 C 23,6 C 23,7 C 54 % 1017,6 hPa 0,0 l/m 2,6 km/h (1 Bft) W 259 0 min 0,000 mm 51 W/m 13,7 C 23,6 C 11,3 km/h (2 Bft) 100 %
25.09.2016 16:50 23,6 C 23,6 C 23,7 C 53 % 1017,7 hPa 0,0 l/m 2,5 km/h (1 Bft) W 275 0 min 0,000 mm 49 W/m 13,4 C 23,6 C 9,7 km/h (2 Bft) 99 %
25.09.2016 17:00 23,4 C 23,4 C 23,6 C 54 % 1017,6 hPa 0,0 l/m 4,7 km/h (1 Bft) S-SW 200 0 min 0,050 mm 47 W/m 13,6 C 23,4 C 14,5 km/h (3 Bft) 99 %
25.09.2016 17:10 23,3 C 23,3 C 23,4 C 54 % 1017,6 hPa 0,0 l/m 3,1 km/h (1 Bft) W-SW 243 0 min 0,000 mm 46 W/m 13,5 C 23,3 C 9,7 km/h (2 Bft) 100 %
25.09.2016 17:20 23,2 C 23,2 C 23,3 C 54 % 1017,6 hPa 0,0 l/m 0,5 km/h (0 Bft) SW 223 0 min 0,000 mm 44 W/m 13,4 C 23,2 C 6,4 km/h (2 Bft) 100 %
25.09.2016 17:30 23,1 C 23,1 C 23,2 C 55 % 1017,7 hPa 0,0 l/m 1,0 km/h (0 Bft) W-SW 238 0 min 0,000 mm 42 W/m 13,6 C 23,1 C 6,4 km/h (2 Bft) 100 %
25.09.2016 17:40 23,1 C 23,1 C 23,1 C 54 % 1017,7 hPa 0,0 l/m 0,4 km/h (0 Bft) W 260 0 min 0,000 mm 40 W/m 13,3 C 23,1 C 6,4 km/h (2 Bft) 100 %
25.09.2016 17:50 23,0 C 23,0 C 23,1 C 56 % 1017,7 hPa 0,0 l/m 0,2 km/h (0 Bft) W 269 0 min 0,000 mm 37 W/m 13,7 C 23,0 C 4,8 km/h (1 Bft) 100 %
25.09.2016 18:00 22,8 C 22,8 C 23,0 C 56 % 1017,6 hPa 0,0 l/m 0,0 km/h (0 Bft) W 267 0 min 0,051 mm 33 W/m 13,6 C 22,8 C 1,6 km/h (1 Bft) 100 %
25.09.2016 18:10 22,7 C 22,7 C 22,8 C 57 % 1017,6 hPa 0,0 l/m 0,0 km/h (0 Bft) W 267 0 min 0,000 mm 32 W/m 13,7 C 22,7 C 0,0 km/h (0 Bft) 100 %
25.09.2016 18:20 22,4 C 22,4 C 22,7 C 58 % 1017,7 hPa 0,0 l/m 0,0 km/h (0 Bft) W 267 0 min 0,000 mm 28 W/m 13,7 C 22,4 C 1,6 km/h (1 Bft) 100 %
25.09.2016 18:30 22,2 C 22,2 C 22,4 C 59 % 1017,8 hPa 0,0 l/m 0,0 km/h (0 Bft) W 267 0 min 0,000 mm 25 W/m 13,8 C 22,2 C 0,0 km/h (0 Bft) 100 %
25.09.2016 18:40 21,9 C 21,9 C 22,2 C 63 % 1017,8 hPa 0,0 l/m 0,0 km/h (0 Bft) W 267 0 min 0,000 mm 16 W/m 14,5 C 21,9 C 0,0 km/h (0 Bft) 100 %
25.09.2016 18:50 21,6 C 21,6 C 21,9 C 64 % 1017,8 hPa 0,0 l/m 0,0 km/h (0 Bft) W 267 0 min 0,000 mm 14 W/m 14,5 C 21,6 C 0,0 km/h (0 Bft) 100 %
25.09.2016 19:00 21,0 C 21,0 C 21,6 C 64 % 1017,9 hPa 0,0 l/m 0,0 km/h (0 Bft) W 267 0 min 0,000 mm 11 W/m 13,9 C 21,0 C 0,0 km/h (0 Bft) 100 %
25.09.2016 19:10 20,5 C 20,5 C 21,0 C 65 % 1017,9 hPa 0,0 l/m 0,0 km/h (0 Bft) W 267 0 min 0,025 mm 0 W/m 13,7 C 20,5 C 0,0 km/h (0 Bft) 100 %
25.09.2016 19:20 19,9 C 19,9 C 20,5 C 66 % 1018,0 hPa 0,0 l/m 0,0 km/h (0 Bft) W 267 0 min 0,001 mm 0 W/m 13,4 C 19,9 C 0,0 km/h (0 Bft) 100 %
25.09.2016 19:30 19,5 C 19,5 C 19,9 C 68 % 1018,1 hPa 0,0 l/m 0,0 km/h (0 Bft) W 267 0 min 0,000 mm 0 W/m 13,4 C 19,5 C 0,0 km/h (0 Bft) 100 %
25.09.2016 19:40 19,0 C 19,0 C 19,5 C 67 % 1018,2 hPa 0,0 l/m 0,0 km/h (0 Bft) W 267 0 min 0,000 mm 0 W/m 12,7 C 19,0 C 0,0 km/h (0 Bft) 100 %
25.09.2016 19:50 18,6 C 18,6 C 19,0 C 70 % 1018,2 hPa 0,0 l/m 0,0 km/h (0 Bft) W 267 0 min 0,000 mm 0 W/m 13,0 C 18,6 C 0,0 km/h (0 Bft) 100 %
25.09.2016 20:00 18,2 C 18,2 C 18,6 C 72 % 1018,2 hPa 0,0 l/m 0,0 km/h (0 Bft) W 267 0 min 0,000 mm 0 W/m 13,1 C 18,2 C 0,0 km/h (0 Bft) 100 %
25.09.2016 20:10 17,8 C 17,8 C 18,2 C 73 % 1018,3 hPa 0,0 l/m 0,0 km/h (0 Bft) W 267 0 min 0,000 mm 0 W/m 12,9 C 17,8 C 0,0 km/h (0 Bft) 100 %
25.09.2016 20:20 17,5 C 17,5 C 17,8 C 74 % 1018,3 hPa 0,0 l/m 0,0 km/h (0 Bft) W 267 0 min 0,000 mm 0 W/m 12,8 C 17,5 C 0,0 km/h (0 Bft) 100 %
25.09.2016 20:30 17,2 C 17,2 C 17,5 C 75 % 1018,3 hPa 0,0 l/m 0,0 km/h (0 Bft) W 267 0 min 0,000 mm 0 W/m 12,7 C 17,2 C 0,0 km/h (0 Bft) 99 %
25.09.2016 20:40 16,9 C 16,9 C 17,2 C 75 % 1018,4 hPa 0,0 l/m 0,0 km/h (0 Bft) W 267 0 min 0,000 mm 0 W/m 12,4 C 16,9 C 0,0 km/h (0 Bft) 99 %
25.09.2016 20:50 16,4 C 16,4 C 16,9 C 76 % 1018,5 hPa 0,0 l/m 0,0 km/h (0 Bft) W 267 0 min 0,000 mm 0 W/m 12,2 C 16,4 C 0,0 km/h (0 Bft) 100 %
25.09.2016 21:00 16,1 C 16,1 C 16,4 C 78 % 1018,6 hPa 0,0 l/m 0,0 km/h (0 Bft) W 267 0 min 0,000 mm 0 W/m 12,3 C 16,1 C 0,0 km/h (0 Bft) 99 %
25.09.2016 21:10 15,8 C 15,8 C 16,1 C 79 % 1018,6 hPa 0,0 l/m 0,0 km/h (0 Bft) N 0 0 min 0,000 mm 0 W/m 12,2 C 15,8 C 0,0 km/h (0 Bft) 97 %
25.09.2016 21:20 15,6 C 15,6 C 15,8 C 80 % 1018,7 hPa 0,0 l/m 0,0 km/h (0 Bft) N 0 0 min 0,000 mm 0 W/m 12,2 C 15,6 C 0,0 km/h (0 Bft) 97 %
25.09.2016 21:30 15,3 C 15,3 C 15,6 C 81 % 1018,7 hPa 0,0 l/m 0,0 km/h (0 Bft) N 0 0 min 0,000 mm 0 W/m 12,1 C 15,3 C 0,0 km/h (0 Bft) 98 %
25.09.2016 21:40 15,1 C 15,1 C 15,3 C 82 % 1018,7 hPa 0,0 l/m 0,0 km/h (0 Bft) N 0 0 min 0,000 mm 0 W/m 12,0 C 15,1 C 0,0 km/h (0 Bft) 97 %
25.09.2016 21:50 14,7 C 14,7 C 15,1 C 83 % 1018,8 hPa 0,0 l/m 0,0 km/h (0 Bft) N 0 0 min 0,000 mm 0 W/m 11,8 C 14,7 C 0,0 km/h (0 Bft) 98 %
25.09.2016 22:00 14,4 C 14,4 C 14,7 C 84 % 1018,9 hPa 0,0 l/m 0,0 km/h (0 Bft) N 0 0 min 0,025 mm 0 W/m 11,7 C 14,4 C 0,0 km/h (0 Bft) 97 %
25.09.2016 22:10 14,1 C 14,1 C 14,4 C 85 % 1018,9 hPa 0,0 l/m 0,0 km/h (0 Bft) N 0 0 min 0,000 mm 0 W/m 11,6 C 14,1 C 0,0 km/h (0 Bft) 97 %
25.09.2016 22:20 13,8 C 13,8 C 14,1 C 85 % 1018,9 hPa 0,0 l/m 0,0 km/h (0 Bft) N 0 0 min 0,000 mm 0 W/m 11,3 C 13,8 C 0,0 km/h (0 Bft) 97 %
25.09.2016 22:30 13,7 C 13,7 C 13,8 C 86 % 1018,9 hPa 0,0 l/m 0,0 km/h (0 Bft) N 0 0 min 0,000 mm 0 W/m 11,4 C 13,7 C 0,0 km/h (0 Bft) 98 %
25.09.2016 22:40 13,5 C 13,5 C 13,7 C 86 % 1018,9 hPa 0,0 l/m 0,0 km/h (0 Bft) N 0 0 min 0,000 mm 0 W/m 11,2 C 13,5 C 0,0 km/h (0 Bft) 97 %
25.09.2016 22:50 13,3 C 13,3 C 13,5 C 87 % 1019,0 hPa 0,0 l/m 0,0 km/h (0 Bft) N 0 0 min 0,000 mm 0 W/m 11,2 C 13,3 C 0,0 km/h (0 Bft) 98 %
25.09.2016 23:00 13,2 C 13,2 C 13,3 C 87 % 1019,0 hPa 0,0 l/m 0,0 km/h (0 Bft) N 0 0 min 0,000 mm 0 W/m 11,1 C 13,2 C 0,0 km/h (0 Bft) 98 %
25.09.2016 23:10 13,1 C 13,0 C 13,2 C 88 % 1019,1 hPa 0,0 l/m 0,0 km/h (0 Bft) N 0 0 min 0,000 mm 0 W/m 11,2 C 13,1 C 0,0 km/h (0 Bft) 97 %
25.09.2016 23:20 12,9 C 12,9 C 13,1 C 88 % 1019,1 hPa 0,0 l/m 0,0 km/h (0 Bft) N 0 0 min 0,000 mm 0 W/m 11,0 C 12,9 C 0,0 km/h (0 Bft) 98 %
25.09.2016 23:30 12,8 C 12,8 C 12,9 C 88 % 1019,2 hPa 0,0 l/m 0,0 km/h (0 Bft) N 0 0 min 0,000 mm 0 W/m 10,9 C 12,8 C 0,0 km/h (0 Bft) 96 %
25.09.2016 23:40 12,7 C 12,7 C 12,8 C 88 % 1019,3 hPa 0,0 l/m 0,0 km/h (0 Bft) N 0 0 min 0,000 mm 0 W/m 10,8 C 12,7 C 0,0 km/h (0 Bft) 97 %
25.09.2016 23:50 12,5 C 12,5 C 12,7 C 88 % 1019,3 hPa 0,0 l/m 0,0 km/h (0 Bft) N 0 0 min 0,000 mm 0 W/m 10,6 C 12,5 C 0,0 km/h (0 Bft) 98 %
_ Min-Zeit 07:30 07:30 07:40 16:50 16:10 - 00:00 - - - - - 07:30 07:30 02:00 08:50
Minimum _ 7,3 C 7,3 C 7,3 C 53 % 1017,6 hPa - 0,0 km/h (0 Bft) - - - - - 5,8 C 7,3 C 0,0 km/h (0 Bft) 88 %
_ Max-Zeit 15:10 15:20 15:10 07:40 00:00 00:00 14:20 - - 12:10 13:00 13:00 18:40 15:10 14:20 00:10
Maximum _ 24,1 C 23,9 C 24,1 C 91 % 1021,1 hPa 0,0 l/m 9,6 km/h
SW (2 Bft)
- - 20 min 0,407 mm 650 W/m 14,5 C 24,1 C 20,9 km/h
S-SW (4 Bft)
100 %
Durchschnitt _ 15,3 C 15,1 C 15,4 C 76 % 1019,3 hPa #0,0 l/m 1,1 km/h (0 Bft) SW - #7:00 h #2,413 mm 313 W/m 10,8 C 15,3 C 3,7 km/h (1 Bft) 99 %
PRIVATE WETTERSTATION BILLIGHEIM-ALLFELD - www.neckar-odenwald-wetter.de - Holger Sonntag